sensor_id;sensor_type;location;lat;lon;timestamp;P1;durP1;ratioP1;P2;durP2;ratioP2
74644;SDS011;63163;55.630;37.594;2022-11-14T00:00:12;1.1;;;0.3;;
74644;SDS011;63163;55.630;37.594;2022-11-14T00:01:13;0.5;;;0.4;;
74644;SDS011;63163;55.630;37.594;2022-11-14T00:02:13;0.6;;;0.3;;
74644;SDS011;63163;55.630;37.594;2022-11-14T00:03:16;0.9;;;0.3;;
74644;SDS011;63163;55.630;37.594;2022-11-14T00:04:16;0.7;;;0.2;;
74644;SDS011;63163;55.630;37.594;2022-11-14T00:05:17;0.6;;;0.4;;
74644;SDS011;63163;55.630;37.594;2022-11-14T00:06:18;1.1;;;0.4;;
74644;SDS011;63163;55.630;37.594;2022-11-14T00:07:19;0.4;;;0.3;;
74644;SDS011;63163;55.630;37.594;2022-11-14T00:08:20;0.3;;;0.3;;
74644;SDS011;63163;55.630;37.594;2022-11-14T00:09:23;0.6;;;0.4;;
74644;SDS011;63163;55.630;37.594;2022-11-14T00:10:24;0.4;;;0.4;;
74644;SDS011;63163;55.630;37.594;2022-11-14T00:11:24;0.7;;;0.3;;
74644;SDS011;63163;55.630;37.594;2022-11-14T00:12:25;0.5;;;0.4;;
74644;SDS011;63163;55.630;37.594;2022-11-14T00:13:26;0.8;;;0.3;;
74644;SDS011;63163;55.630;37.594;2022-11-14T00:14:26;0.4;;;0.4;;
74644;SDS011;63163;55.630;37.594;2022-11-14T00:15:27;0.6;;;0.3;;
74644;SDS011;63163;55.630;37.594;2022-11-14T00:16:27;1.2;;;0.4;;
74644;SDS011;63163;55.630;37.594;2022-11-14T00:17:28;0.5;;;0.2;;
74644;SDS011;63163;55.630;37.594;2022-11-14T00:18:29;0.6;;;0.4;;
74644;SDS011;63163;55.630;37.594;2022-11-14T00:19:30;0.7;;;0.3;;
74644;SDS011;63163;55.630;37.594;2022-11-14T00:20:30;0.5;;;0.4;;
74644;SDS011;63163;55.630;37.594;2022-11-14T00:21:31;0.7;;;0.3;;
74644;SDS011;63163;55.630;37.594;2022-11-14T00:22:32;0.3;;;0.3;;
74644;SDS011;63163;55.630;37.594;2022-11-14T00:23:32;0.3;;;0.3;;
74644;SDS011;63163;55.630;37.594;2022-11-14T00:24:33;0.8;;;0.4;;
74644;SDS011;63163;55.630;37.594;2022-11-14T00:25:34;0.8;;;0.3;;
74644;SDS011;63163;55.630;37.594;2022-11-14T00:26:34;0.2;;;0.2;;
74644;SDS011;63163;55.630;37.594;2022-11-14T00:27:35;0.2;;;0.2;;
74644;SDS011;63163;55.630;37.594;2022-11-14T00:28:35;0.2;;;0.2;;
74644;SDS011;63163;55.630;37.594;2022-11-14T00:29:36;0.2;;;0.2;;
74644;SDS011;63163;55.630;37.594;2022-11-14T00:30:37;0.2;;;0.2;;
74644;SDS011;63163;55.630;37.594;2022-11-14T00:31:37;0.2;;;0.2;;
74644;SDS011;63163;55.630;37.594;2022-11-14T00:32:38;0.2;;;0.2;;
74644;SDS011;63163;55.630;37.594;2022-11-14T00:33:39;0.2;;;0.2;;
74644;SDS011;63163;55.630;37.594;2022-11-14T00:34:39;0.2;;;0.2;;
74644;SDS011;63163;55.630;37.594;2022-11-14T00:35:40;0.2;;;0.2;;
74644;SDS011;63163;55.630;37.594;2022-11-14T00:36:40;0.2;;;0.2;;
74644;SDS011;63163;55.630;37.594;2022-11-14T00:37:41;0.2;;;0.2;;
74644;SDS011;63163;55.630;37.594;2022-11-14T00:38:41;0.2;;;0.2;;
74644;SDS011;63163;55.630;37.594;2022-11-14T00:39:42;0.2;;;0.2;;
74644;SDS011;63163;55.630;37.594;2022-11-14T00:40:43;0.2;;;0.2;;
74644;SDS011;63163;55.630;37.594;2022-11-14T00:41:43;0.2;;;0.2;;
74644;SDS011;63163;55.630;37.594;2022-11-14T00:42:44;0.2;;;0.2;;
74644;SDS011;63163;55.630;37.594;2022-11-14T00:43:44;0.2;;;0.2;;
74644;SDS011;63163;55.630;37.594;2022-11-14T00:44:45;0.2;;;0.2;;
74644;SDS011;63163;55.630;37.594;2022-11-14T00:45:46;0.2;;;0.2;;
74644;SDS011;63163;55.630;37.594;2022-11-14T00:46:47;0.2;;;0.2;;
74644;SDS011;63163;55.630;37.594;2022-11-14T00:47:47;0.2;;;0.2;;
74644;SDS011;63163;55.630;37.594;2022-11-14T00:48:48;0.2;;;0.2;;
74644;SDS011;63163;55.630;37.594;2022-11-14T00:49:48;0.2;;;0.2;;
74644;SDS011;63163;55.630;37.594;2022-11-14T00:50:49;0.2;;;0.2;;
74644;SDS011;63163;55.630;37.594;2022-11-14T00:51:50;0.2;;;0.2;;
74644;SDS011;63163;55.630;37.594;2022-11-14T00:52:50;0.2;;;0.2;;
74644;SDS011;63163;55.630;37.594;2022-11-14T00:53:51;0.2;;;0.2;;
74644;SDS011;63163;55.630;37.594;2022-11-14T00:54:51;0.2;;;0.2;;
74644;SDS011;63163;55.630;37.594;2022-11-14T00:55:52;0.2;;;0.2;;
74644;SDS011;63163;55.630;37.594;2022-11-14T00:56:52;0.2;;;0.2;;
74644;SDS011;63163;55.630;37.594;2022-11-14T00:57:53;0.2;;;0.2;;
74644;SDS011;63163;55.630;37.594;2022-11-14T00:58:54;0.2;;;0.2;;
74644;SDS011;63163;55.630;37.594;2022-11-14T00:59:54;0.2;;;0.2;;
74644;SDS011;63163;55.630;37.594;2022-11-14T01:00:55;0.2;;;0.2;;
74644;SDS011;63163;55.630;37.594;2022-11-14T01:01:56;0.2;;;0.2;;
74644;SDS011;63163;55.630;37.594;2022-11-14T01:02:56;0.2;;;0.2;;
74644;SDS011;63163;55.630;37.594;2022-11-14T01:03:57;0.2;;;0.2;;
74644;SDS011;63163;55.630;37.594;2022-11-14T01:04:58;0.2;;;0.2;;
74644;SDS011;63163;55.630;37.594;2022-11-14T01:06:02;0.2;;;0.2;;
74644;SDS011;63163;55.630;37.594;2022-11-14T01:07:03;0.2;;;0.2;;
74644;SDS011;63163;55.630;37.594;2022-11-14T01:08:04;0.2;;;0.2;;
74644;SDS011;63163;55.630;37.594;2022-11-14T01:09:05;0.2;;;0.2;;
74644;SDS011;63163;55.630;37.594;2022-11-14T01:10:07;0.2;;;0.2;;
74644;SDS011;63163;55.630;37.594;2022-11-14T01:11:08;0.2;;;0.2;;
74644;SDS011;63163;55.630;37.594;2022-11-14T01:12:10;0.2;;;0.2;;
74644;SDS011;63163;55.630;37.594;2022-11-14T01:13:10;0.2;;;0.2;;
74644;SDS011;63163;55.630;37.594;2022-11-14T01:14:11;0.2;;;0.2;;
74644;SDS011;63163;55.630;37.594;2022-11-14T01:15:12;0.2;;;0.2;;
74644;SDS011;63163;55.630;37.594;2022-11-14T01:16:12;0.2;;;0.2;;
74644;SDS011;63163;55.630;37.594;2022-11-14T01:17:13;0.2;;;0.2;;
74644;SDS011;63163;55.630;37.594;2022-11-14T01:18:14;0.2;;;0.2;;
74644;SDS011;63163;55.630;37.594;2022-11-14T01:19:15;0.2;;;0.2;;
74644;SDS011;63163;55.630;37.594;2022-11-14T01:20:16;0.2;;;0.2;;
74644;SDS011;63163;55.630;37.594;2022-11-14T01:21:17;0.2;;;0.2;;
74644;SDS011;63163;55.630;37.594;2022-11-14T01:22:17;0.2;;;0.2;;
74644;SDS011;63163;55.630;37.594;2022-11-14T01:23:18;0.2;;;0.2;;
74644;SDS011;63163;55.630;37.594;2022-11-14T01:24:18;2.1;;;0.4;;
74644;SDS011;63163;55.630;37.594;2022-11-14T01:25:19;2.5;;;0.4;;
74644;SDS011;63163;55.630;37.594;2022-11-14T01:26:20;0.4;;;0.4;;
74644;SDS011;63163;55.630;37.594;2022-11-14T01:27:20;1.4;;;0.3;;
74644;SDS011;63163;55.630;37.594;2022-11-14T01:28:21;0.5;;;0.2;;
74644;SDS011;63163;55.630;37.594;2022-11-14T01:29:21;1.0;;;0.3;;
74644;SDS011;63163;55.630;37.594;2022-11-14T01:30:22;0.8;;;0.3;;
74644;SDS011;63163;55.630;37.594;2022-11-14T01:31:23;1.1;;;0.4;;
74644;SDS011;63163;55.630;37.594;2022-11-14T01:32:25;0.3;;;0.2;;
74644;SDS011;63163;55.630;37.594;2022-11-14T01:33:26;1.1;;;0.4;;
74644;SDS011;63163;55.630;37.594;2022-11-14T01:34:26;0.3;;;0.2;;
74644;SDS011;63163;55.630;37.594;2022-11-14T01:35:29;1.0;;;0.3;;
74644;SDS011;63163;55.630;37.594;2022-11-14T01:36:29;0.2;;;0.2;;
74644;SDS011;63163;55.630;37.594;2022-11-14T01:37:30;0.5;;;0.3;;
74644;SDS011;63163;55.630;37.594;2022-11-14T01:38:31;0.4;;;0.2;;
74644;SDS011;63163;55.630;37.594;2022-11-14T01:39:31;0.5;;;0.2;;
74644;SDS011;63163;55.630;37.594;2022-11-14T01:40:32;1.0;;;0.4;;
74644;SDS011;63163;55.630;37.594;2022-11-14T01:41:33;0.6;;;0.2;;
74644;SDS011;63163;55.630;37.594;2022-11-14T01:42:34;0.7;;;0.3;;
74644;SDS011;63163;55.630;37.594;2022-11-14T01:43:35;1.1;;;0.3;;
74644;SDS011;63163;55.630;37.594;2022-11-14T01:44:38;0.3;;;0.2;;
74644;SDS011;63163;55.630;37.594;2022-11-14T01:45:46;0.3;;;0.3;;
74644;SDS011;63163;55.630;37.594;2022-11-14T01:46:50;0.5;;;0.2;;
74644;SDS011;63163;55.630;37.594;2022-11-14T01:47:53;0.6;;;0.4;;
74644;SDS011;63163;55.630;37.594;2022-11-14T01:48:55;1.0;;;0.2;;
74644;SDS011;63163;55.630;37.594;2022-11-14T01:49:57;0.7;;;0.4;;
74644;SDS011;63163;55.630;37.594;2022-11-14T01:51:00;0.7;;;0.3;;
74644;SDS011;63163;55.630;37.594;2022-11-14T01:52:02;0.7;;;0.3;;
74644;SDS011;63163;55.630;37.594;2022-11-14T01:53:04;0.8;;;0.3;;
74644;SDS011;63163;55.630;37.594;2022-11-14T01:54:06;1.0;;;0.4;;
74644;SDS011;63163;55.630;37.594;2022-11-14T01:55:08;0.1;;;0.1;;
74644;SDS011;63163;55.630;37.594;2022-11-14T01:56:09;0.8;;;0.3;;
74644;SDS011;63163;55.630;37.594;2022-11-14T01:57:11;0.9;;;0.5;;
74644;SDS011;63163;55.630;37.594;2022-11-14T01:58:13;0.8;;;0.2;;
74644;SDS011;63163;55.630;37.594;2022-11-14T01:59:14;1.0;;;0.3;;
74644;SDS011;63163;55.630;37.594;2022-11-14T02:00:15;0.5;;;0.2;;
74644;SDS011;63163;55.630;37.594;2022-11-14T02:01:16;0.4;;;0.2;;
74644;SDS011;63163;55.630;37.594;2022-11-14T02:02:18;0.4;;;0.2;;
74644;SDS011;63163;55.630;37.594;2022-11-14T02:03:19;0.4;;;0.2;;
74644;SDS011;63163;55.630;37.594;2022-11-14T02:04:21;0.4;;;0.2;;
74644;SDS011;63163;55.630;37.594;2022-11-14T02:05:22;0.4;;;0.2;;
74644;SDS011;63163;55.630;37.594;2022-11-14T02:06:23;0.4;;;0.2;;
74644;SDS011;63163;55.630;37.594;2022-11-14T02:07:26;0.4;;;0.2;;
74644;SDS011;63163;55.630;37.594;2022-11-14T02:08:27;0.4;;;0.2;;
74644;SDS011;63163;55.630;37.594;2022-11-14T02:09:30;0.4;;;0.2;;
74644;SDS011;63163;55.630;37.594;2022-11-14T02:10:31;0.4;;;0.2;;
74644;SDS011;63163;55.630;37.594;2022-11-14T02:11:34;0.4;;;0.2;;
74644;SDS011;63163;55.630;37.594;2022-11-14T02:12:35;0.4;;;0.2;;
74644;SDS011;63163;55.630;37.594;2022-11-14T02:13:36;0.4;;;0.2;;
74644;SDS011;63163;55.630;37.594;2022-11-14T02:14:37;0.4;;;0.2;;
74644;SDS011;63163;55.630;37.594;2022-11-14T02:15:38;0.4;;;0.2;;
74644;SDS011;63163;55.630;37.594;2022-11-14T02:16:39;0.4;;;0.2;;
74644;SDS011;63163;55.630;37.594;2022-11-14T02:17:40;0.4;;;0.2;;
74644;SDS011;63163;55.630;37.594;2022-11-14T02:18:42;0.4;;;0.2;;
74644;SDS011;63163;55.630;37.594;2022-11-14T02:19:43;0.4;;;0.2;;
74644;SDS011;63163;55.630;37.594;2022-11-14T02:20:44;0.4;;;0.2;;
74644;SDS011;63163;55.630;37.594;2022-11-14T02:21:45;0.4;;;0.2;;
74644;SDS011;63163;55.630;37.594;2022-11-14T02:22:45;0.4;;;0.2;;
74644;SDS011;63163;55.630;37.594;2022-11-14T02:23:46;0.3;;;0.2;;
74644;SDS011;63163;55.630;37.594;2022-11-14T02:24:47;1.0;;;0.3;;
74644;SDS011;63163;55.630;37.594;2022-11-14T02:25:47;0.7;;;0.3;;
74644;SDS011;63163;55.630;37.594;2022-11-14T02:26:48;0.9;;;0.3;;
74644;SDS011;63163;55.630;37.594;2022-11-14T02:27:49;0.7;;;0.3;;
74644;SDS011;63163;55.630;37.594;2022-11-14T02:28:50;1.3;;;0.3;;
74644;SDS011;63163;55.630;37.594;2022-11-14T02:29:50;0.6;;;0.3;;
74644;SDS011;63163;55.630;37.594;2022-11-14T02:30:51;1.2;;;0.4;;
74644;SDS011;63163;55.630;37.594;2022-11-14T02:31:51;0.7;;;0.3;;
74644;SDS011;63163;55.630;37.594;2022-11-14T02:32:52;1.2;;;0.4;;
74644;SDS011;63163;55.630;37.594;2022-11-14T02:33:53;1.0;;;0.7;;
74644;SDS011;63163;55.630;37.594;2022-11-14T02:34:53;1.3;;;0.5;;
74644;SDS011;63163;55.630;37.594;2022-11-14T02:35:54;1.5;;;0.2;;
74644;SDS011;63163;55.630;37.594;2022-11-14T02:36:54;0.7;;;0.3;;
74644;SDS011;63163;55.630;37.594;2022-11-14T02:37:55;0.3;;;0.2;;
74644;SDS011;63163;55.630;37.594;2022-11-14T02:38:56;1.7;;;0.4;;
74644;SDS011;63163;55.630;37.594;2022-11-14T02:39:56;1.7;;;0.3;;
74644;SDS011;63163;55.630;37.594;2022-11-14T02:40:58;1.0;;;0.3;;
74644;SDS011;63163;55.630;37.594;2022-11-14T02:41:59;1.7;;;0.3;;
74644;SDS011;63163;55.630;37.594;2022-11-14T02:42:59;0.3;;;0.2;;
74644;SDS011;63163;55.630;37.594;2022-11-14T02:44:00;1.4;;;0.3;;
74644;SDS011;63163;55.630;37.594;2022-11-14T02:45:00;1.2;;;0.3;;
74644;SDS011;63163;55.630;37.594;2022-11-14T02:46:01;0.7;;;0.3;;
74644;SDS011;63163;55.630;37.594;2022-11-14T02:47:02;2.7;;;0.3;;
74644;SDS011;63163;55.630;37.594;2022-11-14T02:48:03;1.5;;;0.4;;
74644;SDS011;63163;55.630;37.594;2022-11-14T02:49:03;2.3;;;0.5;;
74644;SDS011;63163;55.630;37.594;2022-11-14T02:50:04;1.2;;;0.4;;
74644;SDS011;63163;55.630;37.594;2022-11-14T02:51:05;1.6;;;0.4;;
74644;SDS011;63163;55.630;37.594;2022-11-14T02:52:06;0.4;;;0.3;;
74644;SDS011;63163;55.630;37.594;2022-11-14T02:53:06;1.5;;;0.4;;
74644;SDS011;63163;55.630;37.594;2022-11-14T02:54:07;0.9;;;0.3;;
74644;SDS011;63163;55.630;37.594;2022-11-14T02:55:08;1.5;;;0.5;;
74644;SDS011;63163;55.630;37.594;2022-11-14T02:56:08;1.7;;;0.4;;
74644;SDS011;63163;55.630;37.594;2022-11-14T02:57:09;2.0;;;0.5;;
74644;SDS011;63163;55.630;37.594;2022-11-14T02:58:10;2.0;;;0.4;;
74644;SDS011;63163;55.630;37.594;2022-11-14T02:59:10;0.4;;;0.2;;
74644;SDS011;63163;55.630;37.594;2022-11-14T03:00:11;1.7;;;0.4;;
74644;SDS011;63163;55.630;37.594;2022-11-14T03:01:12;1.0;;;0.2;;
74644;SDS011;63163;55.630;37.594;2022-11-14T03:02:12;1.7;;;0.3;;
74644;SDS011;63163;55.630;37.594;2022-11-14T03:03:13;1.7;;;0.5;;
74644;SDS011;63163;55.630;37.594;2022-11-14T03:04:14;1.9;;;0.4;;
74644;SDS011;63163;55.630;37.594;2022-11-14T03:05:14;1.9;;;0.4;;
74644;SDS011;63163;55.630;37.594;2022-11-14T03:06:15;0.2;;;0.2;;
74644;SDS011;63163;55.630;37.594;2022-11-14T03:07:16;0.2;;;0.2;;
74644;SDS011;63163;55.630;37.594;2022-11-14T03:08:16;0.2;;;0.2;;
74644;SDS011;63163;55.630;37.594;2022-11-14T03:09:17;0.2;;;0.2;;
74644;SDS011;63163;55.630;37.594;2022-11-14T03:10:17;0.2;;;0.2;;
74644;SDS011;63163;55.630;37.594;2022-11-14T03:11:18;0.2;;;0.2;;
74644;SDS011;63163;55.630;37.594;2022-11-14T03:12:18;0.2;;;0.2;;
74644;SDS011;63163;55.630;37.594;2022-11-14T03:13:19;0.2;;;0.2;;
74644;SDS011;63163;55.630;37.594;2022-11-14T03:14:20;0.2;;;0.2;;
74644;SDS011;63163;55.630;37.594;2022-11-14T03:15:21;0.2;;;0.2;;
74644;SDS011;63163;55.630;37.594;2022-11-14T03:16:22;0.2;;;0.2;;
74644;SDS011;63163;55.630;37.594;2022-11-14T03:17:22;0.2;;;0.2;;
74644;SDS011;63163;55.630;37.594;2022-11-14T03:18:23;0.2;;;0.2;;
74644;SDS011;63163;55.630;37.594;2022-11-14T03:19:24;0.2;;;0.2;;
74644;SDS011;63163;55.630;37.594;2022-11-14T03:20:25;0.2;;;0.2;;
74644;SDS011;63163;55.630;37.594;2022-11-14T03:21:25;0.2;;;0.2;;
74644;SDS011;63163;55.630;37.594;2022-11-14T03:22:26;0.2;;;0.2;;
74644;SDS011;63163;55.630;37.594;2022-11-14T03:23:27;1.1;;;0.4;;
74644;SDS011;63163;55.630;37.594;2022-11-14T03:24:27;0.3;;;0.2;;
74644;SDS011;63163;55.630;37.594;2022-11-14T03:25:28;0.4;;;0.3;;
74644;SDS011;63163;55.630;37.594;2022-11-14T03:26:29;0.3;;;0.2;;
74644;SDS011;63163;55.630;37.594;2022-11-14T03:27:30;1.9;;;0.6;;
74644;SDS011;63163;55.630;37.594;2022-11-14T03:28:30;1.5;;;0.4;;
74644;SDS011;63163;55.630;37.594;2022-11-14T03:29:31;1.8;;;0.5;;
74644;SDS011;63163;55.630;37.594;2022-11-14T03:30:31;1.1;;;0.4;;
74644;SDS011;63163;55.630;37.594;2022-11-14T03:31:32;1.8;;;0.6;;
74644;SDS011;63163;55.630;37.594;2022-11-14T03:32:32;1.0;;;0.4;;
74644;SDS011;63163;55.630;37.594;2022-11-14T03:33:33;1.5;;;0.5;;
74644;SDS011;63163;55.630;37.594;2022-11-14T03:34:34;3.8;;;0.5;;
74644;SDS011;63163;55.630;37.594;2022-11-14T03:35:34;2.3;;;0.5;;
74644;SDS011;63163;55.630;37.594;2022-11-14T03:36:35;3.6;;;0.6;;
74644;SDS011;63163;55.630;37.594;2022-11-14T03:37:36;1.5;;;0.4;;
74644;SDS011;63163;55.630;37.594;2022-11-14T03:38:37;1.1;;;0.3;;
74644;SDS011;63163;55.630;37.594;2022-11-14T03:39:38;1.0;;;0.4;;
74644;SDS011;63163;55.630;37.594;2022-11-14T03:40:38;1.0;;;0.3;;
74644;SDS011;63163;55.630;37.594;2022-11-14T03:41:39;1.7;;;0.5;;
74644;SDS011;63163;55.630;37.594;2022-11-14T03:42:39;2.0;;;0.6;;
74644;SDS011;63163;55.630;37.594;2022-11-14T03:43:40;3.7;;;0.8;;
74644;SDS011;63163;55.630;37.594;2022-11-14T03:44:40;1.2;;;0.5;;
74644;SDS011;63163;55.630;37.594;2022-11-14T03:45:41;3.2;;;0.6;;
74644;SDS011;63163;55.630;37.594;2022-11-14T03:46:42;0.7;;;0.4;;
74644;SDS011;63163;55.630;37.594;2022-11-14T03:47:43;1.4;;;0.5;;
74644;SDS011;63163;55.630;37.594;2022-11-14T03:48:43;1.7;;;0.4;;
74644;SDS011;63163;55.630;37.594;2022-11-14T03:49:44;3.1;;;0.4;;
74644;SDS011;63163;55.630;37.594;2022-11-14T03:50:44;1.7;;;0.6;;
74644;SDS011;63163;55.630;37.594;2022-11-14T03:51:45;1.2;;;0.4;;
74644;SDS011;63163;55.630;37.594;2022-11-14T03:52:47;1.9;;;0.5;;
74644;SDS011;63163;55.630;37.594;2022-11-14T03:53:48;1.9;;;0.4;;
74644;SDS011;63163;55.630;37.594;2022-11-14T03:54:48;0.8;;;0.4;;
74644;SDS011;63163;55.630;37.594;2022-11-14T03:55:50;2.0;;;0.5;;
74644;SDS011;63163;55.630;37.594;2022-11-14T03:56:50;0.6;;;0.4;;
74644;SDS011;63163;55.630;37.594;2022-11-14T03:57:51;1.5;;;0.4;;
74644;SDS011;63163;55.630;37.594;2022-11-14T03:58:52;2.4;;;0.5;;
74644;SDS011;63163;55.630;37.594;2022-11-14T03:59:52;3.4;;;0.5;;
74644;SDS011;63163;55.630;37.594;2022-11-14T04:00:53;1.5;;;0.4;;
74644;SDS011;63163;55.630;37.594;2022-11-14T04:01:55;2.3;;;0.5;;
74644;SDS011;63163;55.630;37.594;2022-11-14T04:02:56;1.0;;;0.3;;
74644;SDS011;63163;55.630;37.594;2022-11-14T04:03:57;1.9;;;0.4;;
74644;SDS011;63163;55.630;37.594;2022-11-14T04:04:57;0.9;;;0.3;;
74644;SDS011;63163;55.630;37.594;2022-11-14T04:05:58;1.1;;;0.7;;
74644;SDS011;63163;55.630;37.594;2022-11-14T04:06:58;2.9;;;0.6;;
74644;SDS011;63163;55.630;37.594;2022-11-14T04:07:59;1.3;;;0.3;;
74644;SDS011;63163;55.630;37.594;2022-11-14T04:09:00;2.7;;;0.4;;
74644;SDS011;63163;55.630;37.594;2022-11-14T04:10:00;1.0;;;0.3;;
74644;SDS011;63163;55.630;37.594;2022-11-14T04:11:01;1.5;;;0.5;;
74644;SDS011;63163;55.630;37.594;2022-11-14T04:12:02;2.1;;;0.5;;
74644;SDS011;63163;55.630;37.594;2022-11-14T04:13:03;1.4;;;0.5;;
74644;SDS011;63163;55.630;37.594;2022-11-14T04:14:04;0.5;;;0.3;;
74644;SDS011;63163;55.630;37.594;2022-11-14T04:15:04;1.9;;;0.5;;
74644;SDS011;63163;55.630;37.594;2022-11-14T04:16:05;1.8;;;0.8;;
74644;SDS011;63163;55.630;37.594;2022-11-14T04:17:07;0.6;;;0.2;;
74644;SDS011;63163;55.630;37.594;2022-11-14T04:18:08;0.8;;;0.3;;
74644;SDS011;63163;55.630;37.594;2022-11-14T04:19:08;1.0;;;0.4;;
74644;SDS011;63163;55.630;37.594;2022-11-14T04:20:10;1.0;;;0.4;;
74644;SDS011;63163;55.630;37.594;2022-11-14T04:21:11;1.0;;;0.4;;
74644;SDS011;63163;55.630;37.594;2022-11-14T04:22:11;1.0;;;0.4;;
74644;SDS011;63163;55.630;37.594;2022-11-14T04:23:12;2.2;;;0.6;;
74644;SDS011;63163;55.630;37.594;2022-11-14T04:24:12;1.5;;;0.5;;
74644;SDS011;63163;55.630;37.594;2022-11-14T04:25:13;2.7;;;0.6;;
74644;SDS011;63163;55.630;37.594;2022-11-14T04:26:14;3.3;;;0.5;;
74644;SDS011;63163;55.630;37.594;2022-11-14T04:27:14;1.2;;;0.4;;
74644;SDS011;63163;55.630;37.594;2022-11-14T04:28:15;2.0;;;0.4;;
74644;SDS011;63163;55.630;37.594;2022-11-14T04:29:16;2.0;;;0.4;;
74644;SDS011;63163;55.630;37.594;2022-11-14T04:30:16;3.8;;;0.5;;
74644;SDS011;63163;55.630;37.594;2022-11-14T04:31:17;3.6;;;0.6;;
74644;SDS011;63163;55.630;37.594;2022-11-14T04:32:17;2.3;;;0.5;;
74644;SDS011;63163;55.630;37.594;2022-11-14T04:33:18;3.6;;;0.5;;
74644;SDS011;63163;55.630;37.594;2022-11-14T04:34:18;1.6;;;0.5;;
74644;SDS011;63163;55.630;37.594;2022-11-14T04:35:19;2.7;;;0.7;;
74644;SDS011;63163;55.630;37.594;2022-11-14T04:36:20;2.3;;;0.7;;
74644;SDS011;63163;55.630;37.594;2022-11-14T04:37:20;2.5;;;0.5;;
74644;SDS011;63163;55.630;37.594;2022-11-14T04:38:21;0.6;;;0.3;;
74644;SDS011;63163;55.630;37.594;2022-11-14T04:39:21;3.9;;;0.6;;
74644;SDS011;63163;55.630;37.594;2022-11-14T04:40:22;1.4;;;0.4;;
74644;SDS011;63163;55.630;37.594;2022-11-14T04:41:23;2.2;;;0.6;;
74644;SDS011;63163;55.630;37.594;2022-11-14T04:42:23;1.2;;;0.3;;
74644;SDS011;63163;55.630;37.594;2022-11-14T04:43:25;1.2;;;0.3;;
74644;SDS011;63163;55.630;37.594;2022-11-14T04:44:25;1.2;;;0.3;;
74644;SDS011;63163;55.630;37.594;2022-11-14T04:45:26;1.2;;;0.3;;
74644;SDS011;63163;55.630;37.594;2022-11-14T04:46:26;1.2;;;0.3;;
74644;SDS011;63163;55.630;37.594;2022-11-14T04:47:27;1.2;;;0.3;;
74644;SDS011;63163;55.630;37.594;2022-11-14T04:48:28;1.2;;;0.3;;
74644;SDS011;63163;55.630;37.594;2022-11-14T04:49:28;1.2;;;0.3;;
74644;SDS011;63163;55.630;37.594;2022-11-14T04:50:29;1.2;;;0.3;;
74644;SDS011;63163;55.630;37.594;2022-11-14T04:51:30;1.2;;;0.3;;
74644;SDS011;63163;55.630;37.594;2022-11-14T04:52:31;1.2;;;0.3;;
74644;SDS011;63163;55.630;37.594;2022-11-14T04:53:31;1.2;;;0.3;;
74644;SDS011;63163;55.630;37.594;2022-11-14T04:54:32;1.2;;;0.3;;
74644;SDS011;63163;55.630;37.594;2022-11-14T04:55:33;1.2;;;0.3;;
74644;SDS011;63163;55.630;37.594;2022-11-14T04:56:33;1.2;;;0.3;;
74644;SDS011;63163;55.630;37.594;2022-11-14T04:57:34;1.2;;;0.3;;
74644;SDS011;63163;55.630;37.594;2022-11-14T04:58:34;1.2;;;0.3;;
74644;SDS011;63163;55.630;37.594;2022-11-14T04:59:35;1.2;;;0.3;;
74644;SDS011;63163;55.630;37.594;2022-11-14T05:00:36;1.2;;;0.3;;
74644;SDS011;63163;55.630;37.594;2022-11-14T05:01:36;1.2;;;0.3;;
74644;SDS011;63163;55.630;37.594;2022-11-14T05:02:37;1.2;;;0.3;;
74644;SDS011;63163;55.630;37.594;2022-11-14T05:03:37;1.2;;;0.3;;
74644;SDS011;63163;55.630;37.594;2022-11-14T05:04:38;1.2;;;0.3;;
74644;SDS011;63163;55.630;37.594;2022-11-14T05:05:38;1.2;;;0.3;;
74644;SDS011;63163;55.630;37.594;2022-11-14T05:06:39;1.2;;;0.3;;
74644;SDS011;63163;55.630;37.594;2022-11-14T05:07:40;1.2;;;0.3;;
74644;SDS011;63163;55.630;37.594;2022-11-14T05:08:40;1.2;;;0.3;;
74644;SDS011;63163;55.630;37.594;2022-11-14T05:09:41;1.2;;;0.3;;
74644;SDS011;63163;55.630;37.594;2022-11-14T05:10:42;1.2;;;0.3;;
74644;SDS011;63163;55.630;37.594;2022-11-14T05:11:42;1.2;;;0.3;;
74644;SDS011;63163;55.630;37.594;2022-11-14T05:12:43;1.2;;;0.3;;
74644;SDS011;63163;55.630;37.594;2022-11-14T05:13:44;1.2;;;0.3;;
74644;SDS011;63163;55.630;37.594;2022-11-14T05:14:44;1.2;;;0.3;;
74644;SDS011;63163;55.630;37.594;2022-11-14T05:15:45;1.2;;;0.3;;
74644;SDS011;63163;55.630;37.594;2022-11-14T05:16:46;1.2;;;0.3;;
74644;SDS011;63163;55.630;37.594;2022-11-14T05:17:46;1.2;;;0.3;;
74644;SDS011;63163;55.630;37.594;2022-11-14T05:18:47;1.2;;;0.3;;
74644;SDS011;63163;55.630;37.594;2022-11-14T05:19:48;1.2;;;0.3;;
74644;SDS011;63163;55.630;37.594;2022-11-14T05:20:48;1.2;;;0.3;;
74644;SDS011;63163;55.630;37.594;2022-11-14T05:21:49;1.2;;;0.3;;
74644;SDS011;63163;55.630;37.594;2022-11-14T05:22:51;1.2;;;0.3;;
74644;SDS011;63163;55.630;37.594;2022-11-14T05:23:52;2.1;;;0.6;;
74644;SDS011;63163;55.630;37.594;2022-11-14T05:24:53;2.1;;;0.6;;
74644;SDS011;63163;55.630;37.594;2022-11-14T05:26:03;1.8;;;0.7;;
74644;SDS011;63163;55.630;37.594;2022-11-14T05:27:04;3.7;;;0.9;;
74644;SDS011;63163;55.630;37.594;2022-11-14T05:28:05;3.7;;;0.9;;
74644;SDS011;63163;55.630;37.594;2022-11-14T05:29:06;2.5;;;0.6;;
74644;SDS011;63163;55.630;37.594;2022-11-14T05:30:07;2.3;;;0.6;;
74644;SDS011;63163;55.630;37.594;2022-11-14T05:31:08;2.8;;;0.6;;
74644;SDS011;63163;55.630;37.594;2022-11-14T05:32:09;5.1;;;0.9;;
74644;SDS011;63163;55.630;37.594;2022-11-14T05:33:10;4.2;;;0.7;;
74644;SDS011;63163;55.630;37.594;2022-11-14T05:34:10;4.5;;;0.8;;
74644;SDS011;63163;55.630;37.594;2022-11-14T05:35:11;5.4;;;1.1;;
74644;SDS011;63163;55.630;37.594;2022-11-14T05:36:12;2.8;;;0.7;;
74644;SDS011;63163;55.630;37.594;2022-11-14T05:37:13;2.7;;;0.8;;
74644;SDS011;63163;55.630;37.594;2022-11-14T05:38:14;2.5;;;0.6;;
74644;SDS011;63163;55.630;37.594;2022-11-14T05:39:14;4.4;;;0.9;;
74644;SDS011;63163;55.630;37.594;2022-11-14T05:40:15;4.6;;;1.1;;
74644;SDS011;63163;55.630;37.594;2022-11-14T05:41:18;3.3;;;0.9;;
74644;SDS011;63163;55.630;37.594;2022-11-14T05:42:20;5.5;;;0.9;;
74644;SDS011;63163;55.630;37.594;2022-11-14T05:43:20;3.2;;;0.9;;
74644;SDS011;63163;55.630;37.594;2022-11-14T05:44:21;2.5;;;0.7;;
74644;SDS011;63163;55.630;37.594;2022-11-14T05:45:21;2.1;;;0.8;;
74644;SDS011;63163;55.630;37.594;2022-11-14T05:46:22;2.4;;;0.6;;
74644;SDS011;63163;55.630;37.594;2022-11-14T05:47:23;2.0;;;0.6;;
74644;SDS011;63163;55.630;37.594;2022-11-14T05:48:23;3.4;;;1.0;;
74644;SDS011;63163;55.630;37.594;2022-11-14T05:49:24;2.7;;;0.8;;
74644;SDS011;63163;55.630;37.594;2022-11-14T05:50:24;3.0;;;0.7;;
74644;SDS011;63163;55.630;37.594;2022-11-14T05:51:25;3.4;;;0.9;;
74644;SDS011;63163;55.630;37.594;2022-11-14T05:52:26;3.4;;;0.9;;
74644;SDS011;63163;55.630;37.594;2022-11-14T05:53:27;3.4;;;0.9;;
74644;SDS011;63163;55.630;37.594;2022-11-14T05:54:28;3.4;;;0.9;;
74644;SDS011;63163;55.630;37.594;2022-11-14T05:55:28;3.4;;;0.9;;
74644;SDS011;63163;55.630;37.594;2022-11-14T05:56:29;3.4;;;0.9;;
74644;SDS011;63163;55.630;37.594;2022-11-14T05:57:29;3.4;;;0.9;;
74644;SDS011;63163;55.630;37.594;2022-11-14T05:58:30;3.4;;;0.9;;
74644;SDS011;63163;55.630;37.594;2022-11-14T05:59:31;3.4;;;0.9;;
74644;SDS011;63163;55.630;37.594;2022-11-14T06:00:31;3.4;;;0.9;;
74644;SDS011;63163;55.630;37.594;2022-11-14T06:01:32;3.4;;;0.9;;
74644;SDS011;63163;55.630;37.594;2022-11-14T06:02:32;3.4;;;0.9;;
74644;SDS011;63163;55.630;37.594;2022-11-14T06:03:34;3.4;;;0.9;;
74644;SDS011;63163;55.630;37.594;2022-11-14T06:04:35;3.4;;;0.9;;
74644;SDS011;63163;55.630;37.594;2022-11-14T06:05:35;3.4;;;0.9;;
74644;SDS011;63163;55.630;37.594;2022-11-14T06:06:36;3.4;;;0.9;;
74644;SDS011;63163;55.630;37.594;2022-11-14T06:07:37;3.4;;;0.9;;
74644;SDS011;63163;55.630;37.594;2022-11-14T06:08:38;3.4;;;0.9;;
74644;SDS011;63163;55.630;37.594;2022-11-14T06:09:39;3.4;;;0.9;;
74644;SDS011;63163;55.630;37.594;2022-11-14T06:10:39;3.4;;;0.9;;
74644;SDS011;63163;55.630;37.594;2022-11-14T06:11:40;3.4;;;0.9;;